createdAt,value
2023-07-07T00:00:21.183Z,4.25
2023-07-07T00:02:48.274Z,4.20
2023-07-07T00:05:15.494Z,4.50
2023-07-07T00:07:42.392Z,4.25
2023-07-07T00:10:09.793Z,4.32
2023-07-07T00:12:37.391Z,4.20
2023-07-07T00:15:04.800Z,4.35
2023-07-07T00:17:31.773Z,4.65
2023-07-07T00:19:58.660Z,4.40
2023-07-07T00:22:25.606Z,4.15
2023-07-07T00:24:52.371Z,3.95
2023-07-07T00:27:19.226Z,4.25
2023-07-07T00:29:46.167Z,4.00
2023-07-07T00:32:13.156Z,4.40
2023-07-07T00:34:40.155Z,3.90
2023-07-07T00:37:07.894Z,4.00
2023-07-07T00:39:35.404Z,4.28
2023-07-07T00:42:02.373Z,4.50
2023-07-07T00:44:51.792Z,4.00
2023-07-07T00:47:19.176Z,4.00
2023-07-07T00:49:46.204Z,4.28
2023-07-07T00:52:13.012Z,4.28
2023-07-07T00:54:39.838Z,4.10
2023-07-07T00:57:06.980Z,4.25
2023-07-07T00:59:37.312Z,4.00
2023-07-07T01:02:08.053Z,4.40
2023-07-07T01:04:35.189Z,4.10
2023-07-07T01:07:10.289Z,4.13
2023-07-07T01:09:38.413Z,4.28
2023-07-07T01:12:11.673Z,4.30
2023-07-07T01:14:38.716Z,4.30
2023-07-07T01:17:38.075Z,4.47
2023-07-07T01:20:14.479Z,4.50
2023-07-07T01:22:51.695Z,4.30
2023-07-07T01:25:33.501Z,4.32
2023-07-07T01:28:24.829Z,4.10
2023-07-07T01:31:00.487Z,4.47
2023-07-07T01:33:30.337Z,3.95
2023-07-07T01:35:57.518Z,4.50
2023-07-07T01:38:37.526Z,4.20
2023-07-07T01:41:07.698Z,4.03
2023-07-07T01:43:43.079Z,4.20
2023-07-07T01:46:17.573Z,4.40
2023-07-07T01:49:03.667Z,4.13
2023-07-07T01:51:38.136Z,4.35
2023-07-07T01:54:05.734Z,4.50
2023-07-07T01:56:32.896Z,4.25
2023-07-07T01:58:59.841Z,4.15
2023-07-07T02:01:28.240Z,4.03
2023-07-07T02:03:55.333Z,4.20
2023-07-07T02:06:22.284Z,4.30
2023-07-07T02:08:49.206Z,4.45
2023-07-07T02:11:16.285Z,4.22
2023-07-07T02:13:44.475Z,4.70
2023-07-07T02:16:11.773Z,4.85
2023-07-07T02:18:39.265Z,4.68
2023-07-07T02:21:06.910Z,4.28
2023-07-07T02:23:34.088Z,4.78
2023-07-07T02:26:01.134Z,4.32
2023-07-07T02:28:28.053Z,4.72
2023-07-07T02:30:55.736Z,4.18
2023-07-07T02:33:32.171Z,4.38
2023-07-07T02:36:06.850Z,4.93
2023-07-07T02:38:34.944Z,4.50
2023-07-07T02:41:02.394Z,4.80
2023-07-07T02:43:31.267Z,4.47
2023-07-07T02:45:58.184Z,4.53
2023-07-07T02:48:25.114Z,4.97
2023-07-07T02:50:56.967Z,4.50
2023-07-07T02:53:29.738Z,4.40
2023-07-07T02:55:57.333Z,4.80
2023-07-07T02:58:25.409Z,4.95
2023-07-07T03:00:52.514Z,5.05
2023-07-07T03:03:20.563Z,4.32
2023-07-07T03:05:48.660Z,4.97
2023-07-07T03:08:16.444Z,4.60
2023-07-07T03:10:43.926Z,4.68
2023-07-07T03:13:12.695Z,4.68
2023-07-07T03:15:44.766Z,5.03
2023-07-07T03:18:19.686Z,4.68
2023-07-07T03:20:50.526Z,4.80
2023-07-07T03:23:22.298Z,4.80
2023-07-07T03:25:49.397Z,4.55
2023-07-07T03:28:17.170Z,5.07
2023-07-07T03:30:45.066Z,4.47
2023-07-07T03:33:15.618Z,5.00
2023-07-07T03:35:46.196Z,5.22
2023-07-07T03:38:14.924Z,5.15
2023-07-07T03:40:55.125Z,4.80
2023-07-07T03:43:27.963Z,5.10
2023-07-07T03:45:55.637Z,4.60
2023-07-07T03:48:22.940Z,5.05
2023-07-07T03:51:01.393Z,4.80
2023-07-07T03:53:30.226Z,4.72
2023-07-07T03:55:59.294Z,4.50
2023-07-07T03:58:27.967Z,4.78
2023-07-07T04:00:55.145Z,4.68
2023-07-07T04:03:22.329Z,4.50
2023-07-07T04:05:51.001Z,4.53
2023-07-07T04:08:24.306Z,4.45
2023-07-07T04:11:00.980Z,4.90
2023-07-07T04:16:07.508Z,5.22
2023-07-07T04:18:35.129Z,4.85
2023-07-07T04:21:04.159Z,5.40
2023-07-07T04:23:31.264Z,5.18
2023-07-07T04:25:58.230Z,5.05
2023-07-07T04:28:25.458Z,5.32
2023-07-07T04:30:57.465Z,5.47
2023-07-07T04:33:26.237Z,5.20
2023-07-07T04:35:58.214Z,5.30
2023-07-07T04:38:32.503Z,5.03
2023-07-07T04:41:17.681Z,5.28
2023-07-07T04:46:17.644Z,4.75
2023-07-07T04:48:44.976Z,5.55
2023-07-07T04:51:13.183Z,5.30
2023-07-07T04:53:42.213Z,4.85
2023-07-07T04:56:15.913Z,5.28
2023-07-07T04:58:43.717Z,5.35
2023-07-07T05:01:17.109Z,5.22
2023-07-07T05:03:45.650Z,5.13
2023-07-07T05:06:13.472Z,5.43
2023-07-07T05:08:42.758Z,5.47
2023-07-07T05:11:17.663Z,5.47
2023-07-07T05:13:47.472Z,5.88
2023-07-07T05:16:20.806Z,5.38
2023-07-07T05:18:48.139Z,5.70
2023-07-07T05:21:17.730Z,5.72
2023-07-07T05:23:44.731Z,6.13
2023-07-07T05:26:11.929Z,5.75
2023-07-07T05:28:39.000Z,5.22
2023-07-07T05:31:08.648Z,5.65
2023-07-07T05:33:37.906Z,5.75
2023-07-07T05:36:05.670Z,5.88
2023-07-07T05:38:32.959Z,5.97
2023-07-07T05:41:00.291Z,6.07
2023-07-07T05:43:28.078Z,5.80
2023-07-07T05:46:00.035Z,5.80
2023-07-07T05:48:28.264Z,5.78
2023-07-07T05:50:59.366Z,5.53
2023-07-07T05:53:27.476Z,5.78
2023-07-07T05:56:04.903Z,6.18
2023-07-07T05:58:32.603Z,5.57
2023-07-07T06:00:59.981Z,6.00
2023-07-07T06:03:27.464Z,6.13
2023-07-07T06:05:54.453Z,5.78
2023-07-07T06:08:21.423Z,5.45
2023-07-07T06:10:49.936Z,5.53
2023-07-07T06:13:25.699Z,5.43
2023-07-07T06:15:53.760Z,5.32
2023-07-07T06:18:22.053Z,5.43
2023-07-07T06:20:53.975Z,5.50
2023-07-07T06:23:21.666Z,5.60
2023-07-07T06:25:49.351Z,5.35
2023-07-07T06:28:17.699Z,5.30
2023-07-07T06:30:45.166Z,5.70
2023-07-07T06:33:12.620Z,5.22
2023-07-07T06:35:39.730Z,5.07
2023-07-07T06:38:06.898Z,5.32
2023-07-07T06:40:36.051Z,5.47
2023-07-07T06:43:03.590Z,5.53
2023-07-07T06:45:32.941Z,5.72
2023-07-07T06:48:02.349Z,5.85
2023-07-07T06:50:31.840Z,5.43
2023-07-07T06:52:59.752Z,5.43
2023-07-07T06:55:27.974Z,5.35
2023-07-07T06:57:55.449Z,5.20
2023-07-07T07:00:26.376Z,5.13
2023-07-07T07:02:54.120Z,5.80
2023-07-07T07:05:21.797Z,6.10
2023-07-07T07:07:50.130Z,6.70
2023-07-07T07:10:17.933Z,6.78
2023-07-07T07:12:45.573Z,7.70
2023-07-07T07:15:13.215Z,8.50
2023-07-07T07:17:40.658Z,8.20
2023-07-07T07:20:08.815Z,8.02
2023-07-07T07:22:35.700Z,8.18
2023-07-07T07:25:02.984Z,8.18
2023-07-07T07:27:30.025Z,8.60
2023-07-07T07:29:57.002Z,8.15
2023-07-07T07:32:24.025Z,7.75
2023-07-07T07:34:51.080Z,7.50
2023-07-07T07:37:18.301Z,7.80
2023-07-07T07:39:45.587Z,8.00
2023-07-07T07:42:12.566Z,7.53
2023-07-07T07:44:39.694Z,7.32
2023-07-07T07:47:07.560Z,7.50
2023-07-07T07:49:34.788Z,7.20
2023-07-07T07:52:02.178Z,7.28
2023-07-07T07:54:29.196Z,7.45
2023-07-07T07:56:56.241Z,7.68
2023-07-07T07:59:23.045Z,7.38
2023-07-07T08:01:50.217Z,6.97
2023-07-07T08:04:17.246Z,7.63
2023-07-07T08:06:44.237Z,7.25
2023-07-07T08:09:12.539Z,7.35
2023-07-07T08:11:43.180Z,7.05
2023-07-07T08:14:14.685Z,7.10
2023-07-07T08:16:42.768Z,6.82
2023-07-07T08:19:09.830Z,7.18
2023-07-07T08:21:37.543Z,7.43
2023-07-07T08:24:05.360Z,7.68
2023-07-07T08:26:32.751Z,7.60
2023-07-07T08:29:01.080Z,8.55
2023-07-07T08:31:28.353Z,8.50
2023-07-07T08:34:01.629Z,9.35
2023-07-07T08:36:30.567Z,9.40
2023-07-07T08:39:13.756Z,9.23
2023-07-07T08:41:48.148Z,9.38
2023-07-07T08:44:18.450Z,9.48
2023-07-07T08:46:57.027Z,8.38
2023-07-07T08:49:37.612Z,8.50
2023-07-07T08:52:21.964Z,8.25
2023-07-07T08:55:01.149Z,8.18
2023-07-07T08:57:30.134Z,7.97
2023-07-07T09:00:03.148Z,7.55
2023-07-07T09:02:42.301Z,7.70
2023-07-07T09:05:27.529Z,7.53
2023-07-07T09:08:13.365Z,7.63
2023-07-07T09:11:09.182Z,7.40
2023-07-07T09:13:37.361Z,7.25
2023-07-07T09:16:16.112Z,6.82
2023-07-07T09:19:13.576Z,6.65
2023-07-07T09:21:44.869Z,6.57
2023-07-07T09:24:49.376Z,7.10
2023-07-07T09:27:29.775Z,6.82
2023-07-07T09:30:04.251Z,6.30
2023-07-07T09:32:31.184Z,6.72
2023-07-07T09:34:58.102Z,5.78
2023-07-07T09:37:24.957Z,6.30
2023-07-07T09:40:17.374Z,6.25
2023-07-07T09:43:31.475Z,5.70
2023-07-07T09:49:12.975Z,5.28
2023-07-07T09:51:43.815Z,5.32
2023-07-07T09:54:12.056Z,5.55
2023-07-07T09:56:48.387Z,5.38
2023-07-07T09:59:18.947Z,5.15
2023-07-07T10:01:48.822Z,5.50
2023-07-07T10:04:17.698Z,5.10
2023-07-07T10:07:03.647Z,5.38
2023-07-07T10:09:32.572Z,4.93
2023-07-07T10:14:30.918Z,4.70
2023-07-07T10:17:10.094Z,4.80
2023-07-07T10:19:46.640Z,4.65
2023-07-07T10:22:15.405Z,4.40
2023-07-07T10:24:45.530Z,4.68
2023-07-07T10:27:15.155Z,5.10
2023-07-07T10:29:44.040Z,4.13
2023-07-07T10:32:13.987Z,4.20
2023-07-07T10:34:46.133Z,4.60
2023-07-07T10:37:22.330Z,4.47
2023-07-07T10:39:57.226Z,4.30
2023-07-07T10:42:25.410Z,4.50
2023-07-07T10:44:58.698Z,4.80
2023-07-07T10:47:37.430Z,4.60
2023-07-07T10:50:12.411Z,4.65
2023-07-07T10:55:36.712Z,4.53
2023-07-07T10:58:03.524Z,4.47
2023-07-07T11:00:51.427Z,4.57
2023-07-07T11:03:39.909Z,4.45
2023-07-07T11:06:16.664Z,4.47
2023-07-07T11:08:51.209Z,4.45
2023-07-07T11:11:43.220Z,4.32
2023-07-07T11:14:27.934Z,4.43
2023-07-07T11:17:32.869Z,4.68
2023-07-07T11:20:18.514Z,4.63
2023-07-07T11:23:23.658Z,4.82
2023-07-07T11:26:19.153Z,4.72
2023-07-07T11:29:09.936Z,4.88
2023-07-07T11:31:40.083Z,4.88
2023-07-07T11:34:31.929Z,4.93
2023-07-07T11:37:09.868Z,4.80
2023-07-07T11:39:55.609Z,4.50
2023-07-07T11:42:32.078Z,4.47
2023-07-07T11:44:59.108Z,4.25
2023-07-07T11:47:36.050Z,4.22
2023-07-07T11:50:25.482Z,4.20
2023-07-07T11:53:29.186Z,4.50
2023-07-07T11:56:16.278Z,4.22
2023-07-07T11:58:53.619Z,4.20
2023-07-07T12:01:23.465Z,4.13
2023-07-07T12:03:53.762Z,3.97
2023-07-07T12:06:30.578Z,4.07
2023-07-07T12:09:04.342Z,4.03
2023-07-07T12:11:36.988Z,4.07
2023-07-07T12:14:27.818Z,3.47
2023-07-07T12:16:56.634Z,4.03
2023-07-07T12:19:38.769Z,3.88
2023-07-07T12:22:15.032Z,4.10
2023-07-07T12:25:04.445Z,3.78
2023-07-07T12:27:38.351Z,4.10
2023-07-07T12:30:06.599Z,3.97
2023-07-07T12:32:34.599Z,3.95
2023-07-07T12:35:13.898Z,3.75
2023-07-07T12:37:41.038Z,3.80
2023-07-07T12:40:10.857Z,3.60
2023-07-07T12:42:42.223Z,3.40
2023-07-07T12:45:10.566Z,3.83
2023-07-07T12:47:39.719Z,3.58
2023-07-07T12:50:26.949Z,3.55
2023-07-07T12:52:54.945Z,3.78
2023-07-07T12:55:25.916Z,3.75
2023-07-07T12:58:08.156Z,3.33
2023-07-07T13:00:40.754Z,3.35
2023-07-07T13:03:10.994Z,3.20
2023-07-07T13:05:46.295Z,3.75
2023-07-07T13:08:25.962Z,3.72
2023-07-07T13:11:04.563Z,3.28
2023-07-07T13:13:40.113Z,3.55
2023-07-07T13:16:13.096Z,3.60
2023-07-07T13:18:40.531Z,3.30
2023-07-07T13:21:07.799Z,3.55
2023-07-07T13:23:42.310Z,3.53
2023-07-07T13:26:30.766Z,3.30
2023-07-07T13:29:00.486Z,3.58
2023-07-07T13:31:28.373Z,3.55
2023-07-07T13:33:55.444Z,3.38
2023-07-07T13:36:24.465Z,3.55
2023-07-07T13:38:51.831Z,3.60
2023-07-07T13:41:20.412Z,3.40
2023-07-07T13:43:49.562Z,3.38
2023-07-07T13:46:33.367Z,3.70
2023-07-07T13:49:03.980Z,3.20
2023-07-07T13:51:33.491Z,3.15
2023-07-07T13:54:02.824Z,3.47
2023-07-07T13:56:30.273Z,3.03
2023-07-07T13:58:57.493Z,3.20
2023-07-07T14:01:38.031Z,3.17
2023-07-07T14:04:10.362Z,3.20
2023-07-07T14:06:38.830Z,3.00
2023-07-07T14:09:23.494Z,3.25
2023-07-07T14:11:55.793Z,3.20
2023-07-07T14:14:23.393Z,3.00
2023-07-07T14:17:15.488Z,3.15
2023-07-07T14:19:55.450Z,3.08
2023-07-07T14:22:22.532Z,3.25
2023-07-07T14:24:51.093Z,3.13
2023-07-07T14:27:18.286Z,3.20
2023-07-07T14:29:45.902Z,2.95
2023-07-07T14:32:19.141Z,3.22
2023-07-07T14:34:51.493Z,3.30
2023-07-07T14:37:32.055Z,3.10
2023-07-07T14:40:01.621Z,3.30
2023-07-07T14:42:29.828Z,2.92
2023-07-07T14:44:57.933Z,2.97
2023-07-07T14:47:31.828Z,3.10
2023-07-07T14:50:05.452Z,3.20
2023-07-07T14:52:42.985Z,2.92
2023-07-07T14:55:14.132Z,3.03
2023-07-07T14:57:44.150Z,2.80
2023-07-07T15:00:30.578Z,3.10
2023-07-07T15:02:58.350Z,2.97
2023-07-07T15:05:30.049Z,2.92
2023-07-07T15:08:06.510Z,2.78
2023-07-07T15:10:34.627Z,3.05
2023-07-07T15:13:01.966Z,2.80
2023-07-07T15:15:29.106Z,2.78
2023-07-07T15:17:56.362Z,2.85
2023-07-07T15:20:24.146Z,3.10
2023-07-07T15:22:51.178Z,2.85
2023-07-07T15:25:18.205Z,2.70
2023-07-07T15:27:45.154Z,2.65
2023-07-07T15:30:16.434Z,2.70
2023-07-07T15:32:44.277Z,3.10
2023-07-07T15:35:15.797Z,3.15
2023-07-07T15:37:44.125Z,2.53
2023-07-07T15:40:16.325Z,2.88
2023-07-07T15:42:43.640Z,2.55
2023-07-07T15:45:12.654Z,2.67
2023-07-07T15:47:42.216Z,2.63
2023-07-07T15:50:18.306Z,3.10
2023-07-07T15:52:46.540Z,2.90
2023-07-07T15:55:13.757Z,3.00
2023-07-07T15:57:40.627Z,2.70
2023-07-07T16:00:29.466Z,2.90
2023-07-07T16:02:56.813Z,2.67
2023-07-07T16:05:24.626Z,2.50
2023-07-07T16:07:51.685Z,2.50
2023-07-07T16:10:18.859Z,2.70
2023-07-07T16:12:46.754Z,2.70
2023-07-07T16:15:13.832Z,2.78
2023-07-07T16:17:41.045Z,2.60
2023-07-07T16:20:21.525Z,2.60
2023-07-07T16:22:54.189Z,2.85
2023-07-07T16:25:21.471Z,2.58
2023-07-07T16:27:48.626Z,2.70
2023-07-07T16:30:30.172Z,2.60
2023-07-07T16:32:57.493Z,2.60
2023-07-07T16:35:24.583Z,2.60
2023-07-07T16:37:51.693Z,2.50
2023-07-07T16:40:22.989Z,2.60
2023-07-07T16:42:50.504Z,2.60
2023-07-07T16:45:19.201Z,2.70
2023-07-07T16:47:46.996Z,2.42
2023-07-07T16:50:25.434Z,2.65
2023-07-07T16:52:54.407Z,2.70
2023-07-07T16:55:21.486Z,2.75
2023-07-07T16:57:48.819Z,2.60
2023-07-07T17:00:17.398Z,2.70
2023-07-07T17:02:45.062Z,2.75
2023-07-07T17:05:16.798Z,2.42
2023-07-07T17:07:44.767Z,2.50
2023-07-07T17:10:19.333Z,2.40
2023-07-07T17:15:14.591Z,2.40
2023-07-07T17:17:41.966Z,2.85
2023-07-07T17:20:33.176Z,2.63
2023-07-07T17:23:00.134Z,2.58
2023-07-07T17:25:27.744Z,2.55
2023-07-07T17:27:55.613Z,2.50
2023-07-07T17:30:25.648Z,2.50
2023-07-07T17:32:53.268Z,2.55
2023-07-07T17:35:22.534Z,2.30
2023-07-07T17:37:49.672Z,2.45
2023-07-07T17:40:31.924Z,2.30
2023-07-07T17:42:59.080Z,2.33
2023-07-07T17:45:26.320Z,2.63
2023-07-07T17:47:53.693Z,2.50
2023-07-07T17:50:21.218Z,2.58
2023-07-07T17:52:49.056Z,2.40
2023-07-07T17:55:17.641Z,2.50
2023-07-07T17:57:46.095Z,2.60
2023-07-07T18:00:17.948Z,2.45
2023-07-07T18:02:45.204Z,2.65
2023-07-07T18:05:12.642Z,2.50
2023-07-07T18:07:39.828Z,2.50
2023-07-07T18:10:20.596Z,2.50
2023-07-07T18:12:51.708Z,2.40
2023-07-07T18:15:18.779Z,2.90
2023-07-07T18:17:57.051Z,2.55
2023-07-07T18:21:32.621Z,2.90
2023-07-07T18:23:23.138Z,2.35
2023-07-07T18:25:50.224Z,2.38
2023-07-07T18:28:17.142Z,2.47
2023-07-07T18:30:47.610Z,2.70
2023-07-07T18:33:15.589Z,2.80
2023-07-07T18:35:42.544Z,2.60
2023-07-07T18:38:17.581Z,2.47
2023-07-07T18:40:44.607Z,2.40
2023-07-07T18:43:11.868Z,3.30
2023-07-07T18:45:38.969Z,2.60
2023-07-07T18:48:11.410Z,2.40
2023-07-07T18:50:39.054Z,2.80
2023-07-07T18:53:06.062Z,2.63
2023-07-07T18:55:33.108Z,2.80
2023-07-07T18:58:00.399Z,2.72
2023-07-07T19:00:43.856Z,2.95
2023-07-07T19:03:13.111Z,2.97
2023-07-07T19:05:40.504Z,2.80
2023-07-07T19:08:14.955Z,3.00
2023-07-07T19:10:45.772Z,3.05
2023-07-07T19:13:14.194Z,3.05
2023-07-07T19:15:43.257Z,3.15
2023-07-07T19:18:25.309Z,3.10
2023-07-07T19:20:52.569Z,2.92
2023-07-07T19:23:19.747Z,3.15
2023-07-07T19:25:47.173Z,2.90
2023-07-07T19:28:25.820Z,2.88
2023-07-07T19:30:52.732Z,2.85
2023-07-07T19:33:20.289Z,2.83
2023-07-07T19:35:48.465Z,2.63
2023-07-07T19:38:26.829Z,2.80
2023-07-07T19:40:57.922Z,2.72
2023-07-07T19:43:25.395Z,2.90
2023-07-07T19:45:58.446Z,2.72
2023-07-07T19:48:26.268Z,2.58
2023-07-07T19:51:03.781Z,2.83
2023-07-07T19:53:30.843Z,2.83
2023-07-07T19:55:58.525Z,2.72
2023-07-07T19:58:27.930Z,2.95
2023-07-07T20:00:55.104Z,2.55
2023-07-07T20:03:22.117Z,2.95
2023-07-07T20:05:49.529Z,5.13
2023-07-07T20:08:16.826Z,4.25
2023-07-07T20:10:44.721Z,3.38
2023-07-07T20:13:12.368Z,3.50
2023-07-07T20:15:40.427Z,3.17
2023-07-07T20:18:10.587Z,2.90
2023-07-07T20:20:37.644Z,3.25
2023-07-07T20:23:11.078Z,3.33
2023-07-07T20:25:38.294Z,3.22
2023-07-07T20:28:05.378Z,3.30
2023-07-07T20:30:32.636Z,3.33
2023-07-07T20:33:00.243Z,3.20
2023-07-07T20:35:27.414Z,3.00
2023-07-07T20:37:54.595Z,3.28
2023-07-07T20:40:25.014Z,2.85
2023-07-07T20:42:52.583Z,3.05
2023-07-07T20:45:21.224Z,3.50
2023-07-07T20:47:48.273Z,4.18
2023-07-07T20:50:29.768Z,3.40
2023-07-07T20:52:56.862Z,3.08
2023-07-07T20:55:24.352Z,3.10
2023-07-07T20:57:51.880Z,3.30
2023-07-07T21:00:24.773Z,3.13
2023-07-07T21:02:51.811Z,3.30
2023-07-07T21:05:18.937Z,3.08
2023-07-07T21:07:46.193Z,3.38
2023-07-07T21:10:21.136Z,3.30
2023-07-07T21:12:49.706Z,3.40
2023-07-07T21:15:17.237Z,3.47
2023-07-07T21:17:44.574Z,3.38
2023-07-07T21:20:18.184Z,3.60
2023-07-07T21:22:45.455Z,3.03
2023-07-07T21:25:14.784Z,3.28
2023-07-07T21:27:42.623Z,3.17
2023-07-07T21:30:18.371Z,3.63
2023-07-07T21:32:46.206Z,3.10
2023-07-07T21:35:16.422Z,3.20
2023-07-07T21:37:44.320Z,3.42
2023-07-07T21:40:15.854Z,3.35
2023-07-07T21:42:43.326Z,3.28
2023-07-07T21:45:13.291Z,2.97
2023-07-07T21:47:40.823Z,3.13
2023-07-07T21:50:15.467Z,3.58
2023-07-07T21:52:43.669Z,3.45
2023-07-07T21:55:11.300Z,3.00
2023-07-07T21:57:47.543Z,3.60
2023-07-07T22:00:17.403Z,2.92
2023-07-07T22:02:46.490Z,3.20
2023-07-07T22:05:14.716Z,3.25
2023-07-07T22:07:42.028Z,3.42
2023-07-07T22:10:39.073Z,3.17
2023-07-07T22:13:06.549Z,3.22
2023-07-07T22:15:34.934Z,3.15
2023-07-07T22:18:02.256Z,3.10
2023-07-07T22:20:36.246Z,3.42
2023-07-07T22:23:04.473Z,2.93
2023-07-07T22:25:33.556Z,3.00
2023-07-07T22:28:00.716Z,3.10
2023-07-07T22:30:35.986Z,2.83
2023-07-07T22:33:04.318Z,3.17
2023-07-07T22:35:32.117Z,2.85
2023-07-07T22:37:59.270Z,3.20
2023-07-07T22:40:34.185Z,3.17
2023-07-07T22:43:01.745Z,3.20
2023-07-07T22:45:29.084Z,3.15
2023-07-07T22:47:56.202Z,3.10
2023-07-07T22:50:26.638Z,3.30
2023-07-07T22:52:54.180Z,2.83
2023-07-07T22:55:28.401Z,3.47
2023-07-07T22:57:55.792Z,3.75
2023-07-07T23:00:27.695Z,3.13
2023-07-07T23:02:56.074Z,3.15
2023-07-07T23:05:24.903Z,3.03
2023-07-07T23:07:52.276Z,2.90
2023-07-07T23:10:21.609Z,3.58
2023-07-07T23:12:49.202Z,3.17
2023-07-07T23:15:18.648Z,3.40
2023-07-07T23:17:46.243Z,3.10
2023-07-07T23:20:23.774Z,3.65
2023-07-07T23:22:52.298Z,3.15
2023-07-07T23:25:20.852Z,2.90
2023-07-07T23:27:51.005Z,3.42
2023-07-07T23:30:31.393Z,3.60
2023-07-07T23:33:00.274Z,3.20
2023-07-07T23:35:27.490Z,3.20
2023-07-07T23:37:54.607Z,3.35
2023-07-07T23:40:27.124Z,3.75
2023-07-07T23:42:54.070Z,3.22
2023-07-07T23:45:23.680Z,3.15
2023-07-07T23:48:00.041Z,3.42
2023-07-07T23:50:35.081Z,3.33
2023-07-07T23:53:02.177Z,3.10
2023-07-07T23:55:32.285Z,3.35
2023-07-07T23:58:00.491Z,3.28
